WetterOnline ( https://www.wetteronline.ch )

Wetter aktuell Nürnberg

Aktuelles Wetter: Nürnberg/Flughafen (318m)

6-stündlich | Neueste Meldungen
Ortszeit Temperatur Wetter
So, 25.02. 1:00 1.6° C bedeckt
Sa, 24.02. 19:00 6.9° C bedeckt
Sa, 24.02. 13:00 8.0° C bewölkt
Sa, 24.02. 7:00 -1.1° C fast wolkenlos
Sa, 24.02. 1:00 1.1° C bedeckt
Fr, 23.02. 19:00 4.6° C bedeckt
Fr, 23.02. 13:00 6.5° C bedeckt
Fr, 23.02. 7:00 5.5° C bewölkt
Ortszeit Temperatur Wetter
So, 25.02. 5:30 0.4° C wolkenlos
So, 25.02. 5:20 0.4° C wolkenlos
So, 25.02. 5:10 0.7° C leicht bewölkt
So, 25.02. 5:00 0.3° C bedeckt
So, 25.02. 4:50 0.3° C bedeckt
So, 25.02. 4:40 -0.1° C bedeckt
So, 25.02. 4:30 0.9° C bedeckt
So, 25.02. 4:00 0.5° C bedeckt
So, 25.02. 3:30 0.8° C wolkig
So, 25.02. 3:00 1.5° C bewölkt
So, 25.02. 2:30 1.5° C wolkig
So, 25.02. 2:00 1.8° C bewölkt
Ortszeit Relative Feuchte Sichtweite
So, 25.02. 1:00 95% 35 km
Sa, 24.02. 19:00 63% >70 km
Sa, 24.02. 13:00 57% >70 km
Sa, 24.02. 7:00 90% 65 km
Sa, 24.02. 1:00 85% >70 km
Fr, 23.02. 19:00 73% 55 km
Fr, 23.02. 13:00 65% >70 km
Fr, 23.02. 7:00 69% >70 km
Ortszeit Relative Feuchte Sichtweite
So, 25.02. 5:30 95% 29 km
So, 25.02. 5:20 95% -
So, 25.02. 5:10 96% -
So, 25.02. 5:00 96% 28 km
So, 25.02. 4:50 96% -
So, 25.02. 4:40 96% -
So, 25.02. 4:30 96% 16 km
So, 25.02. 4:00 96% 11 km
So, 25.02. 3:30 96% 13 km
So, 25.02. 3:00 95% 30 km
So, 25.02. 2:30 96% 22 km
So, 25.02. 2:00 95% 40 km
Ortszeit Niederschlagsmenge Niederschlagsart
So, 25.02. 1:00 1 l/m2 in 6 Std. Regen
Sa, 24.02. 19:00 0.1 l/m2 in 12 Std. Regen
Sa, 24.02. 13:00 0.1 l/m2 in 6 Std. Regen
Sa, 24.02. 7:00 0.0 l/m2 in 12 Std. -
Sa, 24.02. 1:00 0.0 l/m2 in 6 Std. -
Fr, 23.02. 19:00 0.0 l/m2 in 12 Std. -
Fr, 23.02. 13:00 0.0 l/m2 in 6 Std. -
Fr, 23.02. 7:00 2 l/m2 in 12 Std. -
Ortszeit Niederschlagsmenge Niederschlagsart
So, 25.02. 5:30 0.0 l/m2 in 30 Min -
So, 25.02. 5:20 keine Meldung -
So, 25.02. 5:10 keine Meldung -
So, 25.02. 5:00 0.0 l/m2 in 1 Std. -
So, 25.02. 4:50 keine Meldung -
So, 25.02. 4:40 keine Meldung -
So, 25.02. 4:30 0.0 l/m2 in 30 Min -
So, 25.02. 4:00 0.0 l/m2 in 1 Std. -
So, 25.02. 3:30 0.0 l/m2 in 30 Min -
So, 25.02. 3:00 0.0 l/m2 in 1 Std. -
So, 25.02. 2:30 0.0 l/m2 in 30 Min -
So, 25.02. 2:00 0.0 l/m2 in 1 Std. -
Ortszeit Stärke Spitze Richtung
km/h Bft. km/h Grad Sektor
So, 25.02. 1:00 9 2 54 120° SO
Sa, 24.02. 19:00 11 2 36 170° S
Sa, 24.02. 13:00 14 3 32 210° SW
Sa, 24.02. 7:00 13 3 22 110° O
Sa, 24.02. 1:00 14 3 25 110° O
Fr, 23.02. 19:00 11 2 29 140° SO
Fr, 23.02. 13:00 13 3 30 210° SW
Fr, 23.02. 7:00 13 3 48 230° SW
Ortszeit Stärke Spitze Richtung
km/h Bft. km/h Grad Sektor
So, 25.02. 5:30 14 3 14 100° O
So, 25.02. 5:20 14 3 - 100° O
So, 25.02. 5:10 14 3 - 100° O
So, 25.02. 5:00 13 3 15 110° O
So, 25.02. 4:50 13 3 - 110° O
So, 25.02. 4:40 13 3 - 100° O
So, 25.02. 4:30 7 2 11 100° O
So, 25.02. 4:00 2 1 7 30° NO
So, 25.02. 3:30 2 1 7 100° O
So, 25.02. 3:00 4 1 7 110° O
So, 25.02. 2:30 2 1 7 10° N
So, 25.02. 2:00 7 2 11 90° O
Ortszeit Untergrenze Bedeckung Gattung
total tief tief mittel hoch
So, 25.02. 1:00 5100 m 8/8 8/8 - - -
Sa, 24.02. 19:00 2100 m 8/8 8/8 - - -
Sa, 24.02. 13:00 1200 m 7/8 7/8 - - -
Sa, 24.02. 7:00 5700 m 1/8 1/8 - - -
Sa, 24.02. 1:00 6000 m 8/8 8/8 - - -
Fr, 23.02. 19:00 4800 m 8/8 8/8 - - -
Fr, 23.02. 13:00 3600 m 8/8 8/8 - - -
Fr, 23.02. 7:00 1050 m 8/8 6/8 - - -
Ortszeit Bedeckungsgrad in Achtel und Wolkenuntergrenze
So, 25.02. 5:30 keine Wolken
So, 25.02. 5:20 keine Wolken
So, 25.02. 5:10 2
So, 25.02. 5:00 3(5400m) 8(6300m)
So, 25.02. 4:50 3(5400m) 8(6300m)
So, 25.02. 4:40 8
So, 25.02. 4:30 8(5100m) 8(7200m)
So, 25.02. 4:00 8(5400m)
So, 25.02. 3:30 1(1500m) 8(5100m)
So, 25.02. 3:00 1(1500m) 6(1800m) 8(5400m)
So, 25.02. 2:30 3(1500m) 8(5100m)
So, 25.02. 2:00 7(1500m) 7(5400m)
Ortszeit Luftdruck NN (hPa) Tendenz (hPa in 3 Std.)
So, 25.02. 1:00 1010 - 0,1
Sa, 24.02. 19:00 1008 + 1,3
Sa, 24.02. 13:00 1006 + 1,1
Sa, 24.02. 7:00 1003 + 1,3
Sa, 24.02. 1:00 1001 - 0,1
Fr, 23.02. 19:00 1000 - 0,2
Fr, 23.02. 13:00 1001 + 0,3
Fr, 23.02. 7:00 999 + 1,0
Ortszeit Luftdruck NN (hPa) Tendenz (hPa in 3 Std.)
So, 25.02. 5:30 1009 - 0,8
So, 25.02. 5:20 1009 keine Meldung
So, 25.02. 5:10 1009 keine Meldung
So, 25.02. 5:00 1009 - 0,6
So, 25.02. 4:50 1009 keine Meldung
So, 25.02. 4:40 1009 keine Meldung
So, 25.02. 4:30 1009 - 0,5
So, 25.02. 4:00 1009 - 0,4
So, 25.02. 3:30 1009 - 0,3
So, 25.02. 3:00 1009 - 0,1
So, 25.02. 2:30 1010 - 0,1
So, 25.02. 2:00 1010 + 0,1
Ortszeit Schneehöhe (cm)
So, 25.02. 1:00 0
Sa, 24.02. 19:00 0
Sa, 24.02. 13:00 0
Sa, 24.02. 7:00 0
Sa, 24.02. 1:00 0
Fr, 23.02. 19:00 0
Fr, 23.02. 13:00 0
Fr, 23.02. 7:00 0
Ortszeit Schneehöhe (cm)
So, 25.02. 5:30 0
So, 25.02. 5:20 0
So, 25.02. 5:10 -
So, 25.02. 5:00 0
So, 25.02. 4:50 0
So, 25.02. 4:40 -
So, 25.02. 4:30 0
So, 25.02. 4:00 0
So, 25.02. 3:30 0
So, 25.02. 3:00 0
So, 25.02. 2:30 0
So, 25.02. 2:00 0
Link zu dieser Seite / Seite empfehlen

Das Wetter in ...